createdAt,value
2018-03-20T00:14:01.906Z,6.12
2018-03-20T00:34:46.922Z,5.28
2018-03-20T00:55:22.811Z,5.60
2018-03-20T01:15:56.558Z,5.25
2018-03-20T01:54:30.581Z,5.47
2018-03-20T02:15:04.459Z,5.93
2018-03-20T02:35:38.169Z,3.97
2018-03-20T02:56:13.472Z,4.80
2018-03-20T03:16:47.205Z,4.93
2018-03-20T03:37:22.472Z,4.75
2018-03-20T03:57:58.929Z,4.87
2018-03-20T04:18:31.792Z,4.55
2018-03-20T04:39:06.133Z,4.30
2018-03-20T04:59:41.409Z,4.60
2018-03-20T05:20:36.342Z,4.62
2018-03-20T05:41:08.848Z,4.30
2018-03-20T06:01:44.449Z,5.43
2018-03-20T06:22:21.240Z,5.57
2018-03-20T06:42:54.907Z,7.07
2018-03-20T07:03:29.934Z,7.30
2018-03-20T07:24:06.128Z,7.05
2018-03-20T07:44:40.598Z,5.68
2018-03-20T08:05:16.839Z,5.18
2018-03-20T08:25:51.257Z,4.85
2018-03-20T08:46:23.292Z,5.30
2018-03-20T09:06:58.190Z,5.10
2018-03-20T09:27:35.737Z,4.72
2018-03-20T09:48:09.013Z,4.20
2018-03-20T10:08:44.003Z,4.50
2018-03-20T10:29:21.119Z,5.50
2018-03-20T10:49:56.392Z,5.97
2018-03-20T11:10:30.150Z,6.03
2018-03-20T11:31:03.866Z,5.47
2018-03-20T11:51:40.050Z,5.70
2018-03-20T12:12:14.101Z,5.13
2018-03-20T12:32:48.448Z,5.47
2018-03-20T12:53:31.399Z,7.23
2018-03-20T13:14:06.307Z,6.60
2018-03-20T13:34:38.549Z,6.70
2018-03-20T13:55:10.704Z,5.70
2018-03-20T14:15:44.495Z,5.00
2018-03-20T14:36:10.207Z,3.13
2018-03-20T14:56:43.985Z,4.90
2018-03-20T15:17:19.498Z,3.97
2018-03-20T15:37:53.297Z,3.07
2018-03-20T15:58:28.569Z,1.80
2018-03-20T16:18:59.849Z,1.60
2018-03-20T16:39:36.382Z,1.70
2018-03-20T17:00:10.394Z,1.33
2018-03-20T17:20:45.663Z,1.33
2018-03-20T17:41:21.059Z,1.60
2018-03-20T18:01:54.053Z,1.57
2018-03-20T18:22:27.179Z,1.80
2018-03-20T18:43:02.448Z,2.27
2018-03-20T19:03:35.572Z,1.33
2018-03-20T19:24:10.140Z,2.13
2018-03-20T19:44:42.122Z,2.55
2018-03-20T20:05:16.474Z,4.60
2018-03-20T20:25:51.132Z,3.70
2018-03-20T20:46:22.721Z,4.65
2018-03-20T21:06:54.931Z,3.90
2018-03-20T21:27:30.410Z,4.10
2018-03-20T21:48:05.468Z,2.85
2018-03-20T22:08:41.652Z,4.30
2018-03-20T22:29:14.140Z,4.25
2018-03-20T22:49:47.933Z,3.42
2018-03-20T23:10:24.543Z,1.90
2018-03-20T23:30:58.749Z,2.42
2018-03-20T23:51:30.958Z,1.95
